createdAt,value
2023-03-31T00:03:13.448Z,0.50
2023-03-31T00:08:14.861Z,0.80
2023-03-31T00:13:16.952Z,0.50
2023-03-31T00:18:18.282Z,0.60
2023-03-31T00:23:27.961Z,1.00
2023-03-31T00:28:29.339Z,1.30
2023-03-31T00:33:31.043Z,1.23
2023-03-31T00:38:33.729Z,1.13
2023-03-31T00:43:37.458Z,1.15
2023-03-31T00:48:39.743Z,0.80
2023-03-31T00:53:41.486Z,0.73
2023-03-31T00:58:44.646Z,1.30
2023-03-31T01:03:47.225Z,1.52
2023-03-31T01:08:51.297Z,0.60
2023-03-31T01:13:56.083Z,1.33
2023-03-31T01:18:57.654Z,1.10
2023-03-31T01:24:24.079Z,1.92
2023-03-31T01:29:54.802Z,1.13
2023-03-31T01:35:28.515Z,1.20
2023-03-31T01:40:52.483Z,1.30
2023-03-31T01:46:14.987Z,1.13
2023-03-31T01:51:22.451Z,0.80
2023-03-31T02:01:50.147Z,1.15
2023-03-31T02:06:56.536Z,0.80
2023-03-31T02:11:59.934Z,1.48
2023-03-31T02:17:03.714Z,0.77
2023-03-31T02:22:07.608Z,1.10
2023-03-31T02:27:25.738Z,0.93
2023-03-31T02:32:32.938Z,0.70
2023-03-31T02:37:34.583Z,1.60
2023-03-31T02:42:40.544Z,1.15
2023-03-31T02:47:41.983Z,0.93
2023-03-31T02:52:57.944Z,1.90
2023-03-31T02:58:34.480Z,0.60
2023-03-31T03:03:44.408Z,0.90
2023-03-31T03:08:55.458Z,1.42
2023-03-31T03:14:24.584Z,1.27
2023-03-31T03:19:26.393Z,1.42
2023-03-31T03:24:29.576Z,1.15
2023-03-31T03:29:31.417Z,1.05
2023-03-31T03:34:32.810Z,1.77
2023-03-31T03:39:34.160Z,1.10
2023-03-31T03:44:35.488Z,1.33
2023-03-31T03:49:36.937Z,1.60
2023-03-31T03:54:38.289Z,0.98
2023-03-31T03:59:39.626Z,2.03
2023-03-31T04:04:41.018Z,0.77
2023-03-31T04:09:42.431Z,0.90
2023-03-31T04:14:43.801Z,1.00
2023-03-31T04:19:50.575Z,1.10
2023-03-31T04:24:52.793Z,0.90
2023-03-31T04:29:56.935Z,2.20
2023-03-31T04:35:03.448Z,1.25
2023-03-31T04:40:08.497Z,1.00
2023-03-31T04:45:13.320Z,1.42
2023-03-31T04:50:16.980Z,1.55
2023-03-31T04:55:18.876Z,1.20
2023-03-31T05:00:21.090Z,1.20
2023-03-31T05:05:22.679Z,1.67
2023-03-31T05:10:24.319Z,1.40
2023-03-31T05:15:25.776Z,2.30
2023-03-31T05:20:27.214Z,1.77
2023-03-31T05:25:32.764Z,2.33
2023-03-31T05:30:34.163Z,2.13
2023-03-31T05:35:35.636Z,3.00
2023-03-31T05:40:37.009Z,2.38
2023-03-31T05:45:38.341Z,2.17
2023-03-31T05:50:39.760Z,1.88
2023-03-31T05:55:41.189Z,1.50
2023-03-31T06:00:44.595Z,1.85
2023-03-31T06:05:49.085Z,2.50
2023-03-31T06:10:50.968Z,2.35
2023-03-31T06:15:54.673Z,1.38
2023-03-31T06:20:57.095Z,1.92
2023-03-31T06:26:04.768Z,2.03
2023-03-31T06:31:12.647Z,2.33
2023-03-31T06:36:16.911Z,1.45
2023-03-31T06:41:20.591Z,1.50
2023-03-31T06:46:22.039Z,1.95
2023-03-31T06:51:23.488Z,1.83
2023-03-31T06:56:24.934Z,1.40
2023-03-31T07:01:26.361Z,1.20
2023-03-31T07:06:27.797Z,1.40
2023-03-31T07:11:29.142Z,1.58
2023-03-31T07:16:31.445Z,1.52
2023-03-31T07:21:32.891Z,2.47
2023-03-31T07:26:34.285Z,2.13
2023-03-31T07:31:35.765Z,1.83
2023-03-31T07:36:37.236Z,2.67
2023-03-31T07:41:38.889Z,2.45
2023-03-31T07:46:40.446Z,2.80
2023-03-31T07:51:41.973Z,2.25
2023-03-31T07:56:43.331Z,2.78
2023-03-31T08:01:45.181Z,2.20
2023-03-31T08:06:47.412Z,3.20
2023-03-31T08:11:48.959Z,2.45
2023-03-31T08:16:51.510Z,1.65
2023-03-31T08:21:53.057Z,1.90
2023-03-31T08:26:54.438Z,3.92
2023-03-31T08:31:55.789Z,2.70
2023-03-31T08:36:57.126Z,3.42
2023-03-31T08:42:02.753Z,2.45
2023-03-31T08:47:07.292Z,2.75
2023-03-31T08:52:15.549Z,2.33
2023-03-31T08:57:28.196Z,1.85
2023-03-31T09:03:06.493Z,1.73
2023-03-31T09:08:22.444Z,1.85
2023-03-31T09:13:46.664Z,1.83
2023-03-31T09:18:48.076Z,1.50
2023-03-31T09:23:57.421Z,1.13
2023-03-31T09:29:00.839Z,2.45
2023-03-31T09:34:14.383Z,1.83
2023-03-31T09:39:15.998Z,1.13
2023-03-31T09:44:24.705Z,1.20
2023-03-31T09:49:29.023Z,0.80
2023-03-31T09:54:47.928Z,1.27
2023-03-31T09:59:51.510Z,0.63
2023-03-31T10:04:52.929Z,0.77
2023-03-31T10:09:55.487Z,0.77
2023-03-31T10:15:26.848Z,0.85
2023-03-31T10:20:37.106Z,0.82
2023-03-31T10:25:38.628Z,0.82
2023-03-31T10:30:41.884Z,1.00
2023-03-31T10:35:43.533Z,1.50
2023-03-31T10:40:55.008Z,0.60
2023-03-31T10:56:52.756Z,0.30
2023-03-31T11:02:05.589Z,0.32
2023-03-31T11:07:29.274Z,0.30
2023-03-31T11:18:19.911Z,0.52
2023-03-31T11:23:53.538Z,0.30
2023-03-31T11:29:17.161Z,0.50
2023-03-31T11:34:36.756Z,0.30
2023-03-31T11:39:57.200Z,0.30
2023-03-31T11:45:16.632Z,0.70
2023-03-31T11:50:26.570Z,1.40
2023-03-31T11:55:31.610Z,0.90
2023-03-31T12:00:44.770Z,0.40
2023-03-31T12:05:51.547Z,0.40
2023-03-31T12:11:02.593Z,0.30
2023-03-31T12:16:34.169Z,0.73
2023-03-31T12:22:07.792Z,0.50
2023-03-31T12:27:37.846Z,0.55
2023-03-31T12:32:49.493Z,0.70
2023-03-31T12:38:09.208Z,1.02
2023-03-31T12:43:32.296Z,0.30
2023-03-31T12:49:10.095Z,2.08
2023-03-31T12:54:54.488Z,0.80
2023-03-31T13:00:12.442Z,0.45
2023-03-31T13:05:39.028Z,0.20
2023-03-31T13:11:00.856Z,0.30
2023-03-31T13:16:02.732Z,1.02
2023-03-31T13:21:06.249Z,0.30
2023-03-31T13:26:33.899Z,0.40
2023-03-31T13:32:00.270Z,0.40
2023-03-31T13:37:44.849Z,0.85
2023-03-31T13:42:58.110Z,0.30
2023-03-31T13:48:27.736Z,0.47
2023-03-31T13:54:03.335Z,1.05
2023-03-31T13:59:42.302Z,0.95
2023-03-31T14:05:25.290Z,0.10
2023-03-31T14:10:35.198Z,0.30
2023-03-31T14:15:40.449Z,0.05
2023-03-31T14:20:53.190Z,0.10
2023-03-31T14:26:07.002Z,0.20
2023-03-31T14:31:35.088Z,0.32
2023-03-31T14:36:57.920Z,0.10
2023-03-31T14:42:04.002Z,0.35
2023-03-31T14:47:06.150Z,0.28
2023-03-31T14:52:25.846Z,0.30
2023-03-31T14:57:38.067Z,0.30
2023-03-31T15:02:44.570Z,0.30
2023-03-31T15:07:46.051Z,0.30
2023-03-31T15:12:50.012Z,0.40
2023-03-31T15:17:51.613Z,0.30
2023-03-31T15:22:54.628Z,0.40
2023-03-31T15:28:05.117Z,0.60
2023-03-31T15:33:18.860Z,0.20
2023-03-31T15:38:21.801Z,0.95
2023-03-31T15:43:30.909Z,0.15
2023-03-31T15:48:37.772Z,0.20
2023-03-31T15:53:53.492Z,0.30
2023-03-31T15:59:03.171Z,0.45
2023-03-31T16:04:10.442Z,0.30
2023-03-31T16:14:38.847Z,0.30
2023-03-31T16:19:51.624Z,0.50
2023-03-31T16:24:53.068Z,0.57
2023-03-31T16:30:07.340Z,0.20
2023-03-31T16:35:08.840Z,0.30
2023-03-31T16:40:10.815Z,0.32
2023-03-31T16:45:16.674Z,0.45
2023-03-31T16:50:18.082Z,0.40
2023-03-31T16:55:19.420Z,1.58
2023-03-31T17:00:21.052Z,0.60
2023-03-31T17:05:22.498Z,0.60
2023-03-31T17:10:24.294Z,0.65
2023-03-31T17:15:25.888Z,0.60
2023-03-31T17:20:27.474Z,0.65
2023-03-31T17:25:28.985Z,1.73
2023-03-31T17:30:32.031Z,1.85
2023-03-31T17:35:33.453Z,1.20
2023-03-31T17:40:34.976Z,0.77
2023-03-31T17:45:36.611Z,0.30
2023-03-31T17:50:38.332Z,1.23
2023-03-31T17:55:39.851Z,0.63
2023-03-31T18:00:41.254Z,0.50
2023-03-31T18:05:43.253Z,0.85
2023-03-31T18:10:44.578Z,1.88
2023-03-31T18:15:49.077Z,1.60
2023-03-31T18:20:50.743Z,0.82
2023-03-31T18:25:52.949Z,0.80
2023-03-31T18:30:54.420Z,0.80
2023-03-31T18:35:58.471Z,0.57
2023-03-31T18:41:00.312Z,1.23
2023-03-31T18:46:01.963Z,0.80
2023-03-31T18:51:04.423Z,0.85
2023-03-31T18:56:06.165Z,0.63
2023-03-31T19:01:07.660Z,0.57
2023-03-31T19:06:12.673Z,0.57
2023-03-31T19:11:16.002Z,0.35
2023-03-31T19:16:18.506Z,1.00
2023-03-31T19:21:20.814Z,0.40
2023-03-31T19:26:22.766Z,0.50
2023-03-31T19:31:24.298Z,0.60
2023-03-31T19:36:25.923Z,0.50
2023-03-31T19:41:28.964Z,0.63
2023-03-31T19:46:30.701Z,0.40
2023-03-31T19:51:32.230Z,0.40
2023-03-31T19:56:33.956Z,0.55
2023-03-31T20:01:36.301Z,0.63
2023-03-31T20:06:37.800Z,0.30
2023-03-31T20:11:40.008Z,0.45
2023-03-31T20:16:41.477Z,0.25
2023-03-31T20:21:44.187Z,0.30
2023-03-31T20:26:45.746Z,0.30
2023-03-31T20:31:47.271Z,0.40
2023-03-31T20:36:49.259Z,0.43
2023-03-31T20:41:51.813Z,0.40
2023-03-31T20:46:53.322Z,0.40
2023-03-31T20:51:56.386Z,0.40
2023-03-31T20:56:58.102Z,0.60
2023-03-31T21:01:59.839Z,0.28
2023-03-31T21:07:01.499Z,0.45
2023-03-31T21:12:04.756Z,0.30
2023-03-31T21:17:06.403Z,0.17
2023-03-31T21:22:07.920Z,0.55
2023-03-31T21:27:09.255Z,0.20
2023-03-31T21:32:10.701Z,0.40
2023-03-31T21:37:12.151Z,0.30
2023-03-31T21:42:13.886Z,0.30
2023-03-31T21:47:15.242Z,0.60
2023-03-31T21:52:17.087Z,0.40
2023-03-31T21:57:18.504Z,0.43
2023-03-31T22:02:19.934Z,0.50
2023-03-31T22:07:21.281Z,0.13
2023-03-31T22:12:22.793Z,1.02
2023-03-31T22:17:25.841Z,0.20
2023-03-31T22:22:27.367Z,0.38
2023-03-31T22:27:28.764Z,0.40
2023-03-31T22:32:30.410Z,0.30
2023-03-31T22:37:32.127Z,0.50
2023-03-31T22:42:34.548Z,0.40
2023-03-31T22:47:36.246Z,0.30
2023-03-31T22:52:38.066Z,0.40
2023-03-31T22:57:39.516Z,0.30
2023-03-31T23:02:41.188Z,0.40
2023-03-31T23:07:43.075Z,0.30
2023-03-31T23:12:44.706Z,0.45
2023-03-31T23:17:46.108Z,0.35
2023-03-31T23:22:47.569Z,0.30
2023-03-31T23:27:49.251Z,0.40
2023-03-31T23:32:50.611Z,0.30
2023-03-31T23:37:52.043Z,0.40
2023-03-31T23:42:53.438Z,0.30
2023-03-31T23:47:54.852Z,0.20
2023-03-31T23:52:59.261Z,1.33
2023-03-31T23:58:00.657Z,0.40
